sensor_id;sensor_type;location;lat;lon;timestamp;pressure;altitude;pressure_sealevel;temperature;humidity
30081;BME280;16902;50.816;12.828;2023-07-09T00:03:17;98218.91;;;14.65;100.00
30081;BME280;16902;50.816;12.828;2023-07-09T00:13:28;98226.78;;;14.37;100.00
30081;BME280;16902;50.816;12.828;2023-07-09T00:18:30;98224.31;;;14.29;100.00
30081;BME280;16902;50.816;12.828;2023-07-09T00:23:32;98229.06;;;14.19;100.00
30081;BME280;16902;50.816;12.828;2023-07-09T00:28:34;98226.78;;;14.09;100.00
30081;BME280;16902;50.816;12.828;2023-07-09T00:33:36;98225.56;;;14.05;100.00
30081;BME280;16902;50.816;12.828;2023-07-09T00:38:38;98218.31;;;14.07;100.00
30081;BME280;16902;50.816;12.828;2023-07-09T00:43:45;98226.59;;;14.10;100.00
30081;BME280;16902;50.816;12.828;2023-07-09T00:48:57;98218.25;;;14.00;100.00
30081;BME280;16902;50.816;12.828;2023-07-09T00:54:18;98221.25;;;13.97;100.00
30081;BME280;16902;50.816;12.828;2023-07-09T00:59:24;98215.16;;;13.90;100.00
30081;BME280;16902;50.816;12.828;2023-07-09T01:04:30;98214.94;;;13.85;100.00
30081;BME280;16902;50.816;12.828;2023-07-09T01:09:32;98225.16;;;13.80;100.00
30081;BME280;16902;50.816;12.828;2023-07-09T01:14:38;98212.88;;;13.80;100.00
30081;BME280;16902;50.816;12.828;2023-07-09T01:19:42;98215.88;;;13.77;100.00
30081;BME280;16902;50.816;12.828;2023-07-09T01:25:04;98220.81;;;13.66;100.00
30081;BME280;16902;50.816;12.828;2023-07-09T01:30:18;98206.59;;;13.53;100.00
30081;BME280;16902;50.816;12.828;2023-07-09T01:35:25;98210.97;;;13.46;100.00
30081;BME280;16902;50.816;12.828;2023-07-09T01:40:28;98208.09;;;13.41;100.00
30081;BME280;16902;50.816;12.828;2023-07-09T01:45:34;98209.22;;;13.32;100.00
30081;BME280;16902;50.816;12.828;2023-07-09T01:50:36;98201.84;;;13.21;100.00
30081;BME280;16902;50.816;12.828;2023-07-09T01:55:40;98207.06;;;13.21;100.00
30081;BME280;16902;50.816;12.828;2023-07-09T02:00:42;98209.78;;;13.27;100.00
30081;BME280;16902;50.816;12.828;2023-07-09T02:05:46;98207.63;;;13.16;100.00
30081;BME280;16902;50.816;12.828;2023-07-09T02:10:49;98210.44;;;13.00;100.00
30081;BME280;16902;50.816;12.828;2023-07-09T02:15:51;98219.56;;;12.89;100.00
30081;BME280;16902;50.816;12.828;2023-07-09T02:20:53;98216.88;;;12.82;100.00
30081;BME280;16902;50.816;12.828;2023-07-09T02:25:56;98225.06;;;12.79;100.00
30081;BME280;16902;50.816;12.828;2023-07-09T02:30:58;98217.31;;;12.86;100.00
30081;BME280;16902;50.816;12.828;2023-07-09T02:36:00;98222.53;;;12.86;100.00
30081;BME280;16902;50.816;12.828;2023-07-09T02:41:02;98224.47;;;12.77;100.00
30081;BME280;16902;50.816;12.828;2023-07-09T02:46:04;98220.69;;;12.65;100.00
30081;BME280;16902;50.816;12.828;2023-07-09T02:51:06;98225.97;;;12.57;100.00
30081;BME280;16902;50.816;12.828;2023-07-09T02:56:08;98219.69;;;12.51;100.00
30081;BME280;16902;50.816;12.828;2023-07-09T03:01:10;98223.75;;;12.54;100.00
30081;BME280;16902;50.816;12.828;2023-07-09T03:06:14;98224.09;;;12.51;100.00
30081;BME280;16902;50.816;12.828;2023-07-09T03:11:16;98227.25;;;12.46;100.00
30081;BME280;16902;50.816;12.828;2023-07-09T03:16:18;98225.28;;;12.48;100.00
30081;BME280;16902;50.816;12.828;2023-07-09T03:21:22;98219.06;;;12.49;100.00
30081;BME280;16902;50.816;12.828;2023-07-09T03:26:25;98229.69;;;12.48;100.00
30081;BME280;16902;50.816;12.828;2023-07-09T03:31:29;98236.09;;;12.45;100.00
30081;BME280;16902;50.816;12.828;2023-07-09T03:36:31;98244.84;;;12.52;100.00
30081;BME280;16902;50.816;12.828;2023-07-09T03:41:34;98237.88;;;12.59;100.00
30081;BME280;16902;50.816;12.828;2023-07-09T03:46:36;98240.50;;;12.59;100.00
30081;BME280;16902;50.816;12.828;2023-07-09T03:51:38;98240.50;;;12.59;100.00
30081;BME280;16902;50.816;12.828;2023-07-09T03:56:40;98237.81;;;12.68;100.00
30081;BME280;16902;50.816;12.828;2023-07-09T04:01:42;98240.56;;;12.81;100.00
30081;BME280;16902;50.816;12.828;2023-07-09T04:06:51;98238.13;;;12.94;100.00
30081;BME280;16902;50.816;12.828;2023-07-09T04:11:56;98227.63;;;13.09;100.00
30081;BME280;16902;50.816;12.828;2023-07-09T04:16:58;98232.25;;;13.22;100.00
30081;BME280;16902;50.816;12.828;2023-07-09T04:22:00;98232.19;;;13.36;100.00
30081;BME280;16902;50.816;12.828;2023-07-09T04:27:02;98238.81;;;13.54;100.00
30081;BME280;16902;50.816;12.828;2023-07-09T04:32:06;98243.78;;;13.70;100.00
30081;BME280;16902;50.816;12.828;2023-07-09T04:37:10;98244.53;;;13.85;100.00
30081;BME280;16902;50.816;12.828;2023-07-09T04:42:15;98242.63;;;14.01;100.00
30081;BME280;16902;50.816;12.828;2023-07-09T04:47:19;98234.31;;;14.19;100.00
30081;BME280;16902;50.816;12.828;2023-07-09T04:52:21;98243.16;;;14.46;100.00
30081;BME280;16902;50.816;12.828;2023-07-09T04:57:24;98253.47;;;14.88;100.00
30081;BME280;16902;50.816;12.828;2023-07-09T05:02:26;98253.19;;;15.18;100.00
30081;BME280;16902;50.816;12.828;2023-07-09T05:07:30;98251.25;;;15.40;100.00
30081;BME280;16902;50.816;12.828;2023-07-09T05:12:32;98251.75;;;15.63;100.00
30081;BME280;16902;50.816;12.828;2023-07-09T05:17:34;98260.03;;;15.93;100.00
30081;BME280;16902;50.816;12.828;2023-07-09T05:22:36;98262.25;;;16.23;100.00
30081;BME280;16902;50.816;12.828;2023-07-09T05:27:40;98260.84;;;16.40;100.00
30081;BME280;16902;50.816;12.828;2023-07-09T05:32:42;98271.72;;;16.57;100.00
30081;BME280;16902;50.816;12.828;2023-07-09T05:37:47;98269.50;;;16.74;100.00
30081;BME280;16902;50.816;12.828;2023-07-09T05:42:49;98272.88;;;16.94;100.00
30081;BME280;16902;50.816;12.828;2023-07-09T05:47:51;98283.47;;;17.26;100.00
30081;BME280;16902;50.816;12.828;2023-07-09T05:52:53;98267.31;;;17.54;100.00
30081;BME280;16902;50.816;12.828;2023-07-09T05:58:02;98273.66;;;17.85;100.00
30081;BME280;16902;50.816;12.828;2023-07-09T06:03:04;98277.09;;;18.10;100.00
30081;BME280;16902;50.816;12.828;2023-07-09T06:08:10;98283.16;;;18.36;100.00
30081;BME280;16902;50.816;12.828;2023-07-09T06:13:14;98285.41;;;18.57;100.00
30081;BME280;16902;50.816;12.828;2023-07-09T06:18:16;98279.59;;;18.73;100.00
30081;BME280;16902;50.816;12.828;2023-07-09T06:23:19;98281.78;;;18.95;100.00
30081;BME280;16902;50.816;12.828;2023-07-09T06:28:22;98281.84;;;19.25;100.00
30081;BME280;16902;50.816;12.828;2023-07-09T06:33:27;98298.38;;;19.50;100.00
30081;BME280;16902;50.816;12.828;2023-07-09T06:38:29;98293.91;;;19.81;100.00
30081;BME280;16902;50.816;12.828;2023-07-09T06:43:31;98302.69;;;20.05;100.00
30081;BME280;16902;50.816;12.828;2023-07-09T06:48:34;98302.03;;;20.33;100.00
30081;BME280;16902;50.816;12.828;2023-07-09T06:53:35;98303.91;;;20.68;100.00
30081;BME280;16902;50.816;12.828;2023-07-09T06:58:38;98307.88;;;21.05;100.00
30081;BME280;16902;50.816;12.828;2023-07-09T07:03:43;98301.91;;;21.50;100.00
30081;BME280;16902;50.816;12.828;2023-07-09T07:08:45;98304.63;;;21.84;100.00
30081;BME280;16902;50.816;12.828;2023-07-09T07:13:47;98291.50;;;22.40;100.00
30081;BME280;16902;50.816;12.828;2023-07-09T07:18:53;98301.81;;;22.75;100.00
30081;BME280;16902;50.816;12.828;2023-07-09T07:23:55;98298.84;;;23.10;100.00
30081;BME280;16902;50.816;12.828;2023-07-09T07:28:57;98302.63;;;23.63;100.00
30081;BME280;16902;50.816;12.828;2023-07-09T07:34:01;98303.03;;;24.36;100.00
30081;BME280;16902;50.816;12.828;2023-07-09T07:39:05;98312.69;;;24.95;100.00
30081;BME280;16902;50.816;12.828;2023-07-09T07:44:09;98308.84;;;25.18;100.00
30081;BME280;16902;50.816;12.828;2023-07-09T07:49:11;98314.78;;;25.35;100.00
30081;BME280;16902;50.816;12.828;2023-07-09T07:54:13;98307.91;;;25.64;100.00
30081;BME280;16902;50.816;12.828;2023-07-09T07:59:18;98313.28;;;25.80;100.00
30081;BME280;16902;50.816;12.828;2023-07-09T08:04:20;98302.38;;;26.12;100.00
30081;BME280;16902;50.816;12.828;2023-07-09T08:09:22;98309.31;;;26.44;100.00
30081;BME280;16902;50.816;12.828;2023-07-09T08:14:24;98310.88;;;26.75;100.00
30081;BME280;16902;50.816;12.828;2023-07-09T08:19:26;98311.88;;;27.00;100.00
30081;BME280;16902;50.816;12.828;2023-07-09T08:24:28;98309.69;;;27.17;83.44
30081;BME280;16902;50.816;12.828;2023-07-09T08:29:30;98312.31;;;27.32;58.25
30081;BME280;16902;50.816;12.828;2023-07-09T08:34:38;98314.63;;;27.44;82.48
30081;BME280;16902;50.816;12.828;2023-07-09T08:50:47;98306.91;;;28.55;60.05
30081;BME280;16902;50.816;12.828;2023-07-09T08:55:51;98307.03;;;28.69;54.57
30081;BME280;16902;50.816;12.828;2023-07-09T09:05:57;98305.06;;;29.04;50.33
30081;BME280;16902;50.816;12.828;2023-07-09T09:12:04;98305.84;;;29.47;48.38
30081;BME280;16902;50.816;12.828;2023-07-09T09:16:40;98299.88;;;29.55;47.76
30081;BME280;16902;50.816;12.828;2023-07-09T09:21:46;98296.25;;;29.98;43.59
30081;BME280;16902;50.816;12.828;2023-07-09T09:26:51;98303.72;;;30.19;44.14
30081;BME280;16902;50.816;12.828;2023-07-09T09:31:56;98309.47;;;30.13;39.16
30081;BME280;16902;50.816;12.828;2023-07-09T09:36:59;98304.00;;;30.64;40.82
30081;BME280;16902;50.816;12.828;2023-07-09T09:42:00;98307.47;;;30.37;43.59
30081;BME280;16902;50.816;12.828;2023-07-09T09:47:03;98300.66;;;30.86;40.28
30081;BME280;16902;50.816;12.828;2023-07-09T09:52:11;98311.50;;;31.09;45.26
30081;BME280;16902;50.816;12.828;2023-07-09T09:57:17;98307.31;;;31.03;38.20
30081;BME280;16902;50.816;12.828;2023-07-09T10:02:22;98305.22;;;31.41;36.37
30081;BME280;16902;50.816;12.828;2023-07-09T10:07:36;98305.41;;;32.03;37.91
30081;BME280;16902;50.816;12.828;2023-07-09T10:17:53;98309.59;;;31.87;38.12
30081;BME280;16902;50.816;12.828;2023-07-09T10:28:33;98304.31;;;32.58;41.15
30081;BME280;16902;50.816;12.828;2023-07-09T10:34:05;98303.50;;;32.88;35.51
30081;BME280;16902;50.816;12.828;2023-07-09T10:39:07;98301.72;;;33.32;32.87
30081;BME280;16902;50.816;12.828;2023-07-09T10:44:23;98303.53;;;32.97;32.56
30081;BME280;16902;50.816;12.828;2023-07-09T10:49:33;98308.31;;;33.66;35.79
30081;BME280;16902;50.816;12.828;2023-07-09T11:00:03;98294.84;;;34.47;33.93
30081;BME280;16902;50.816;12.828;2023-07-09T11:05:06;98295.72;;;33.87;33.17
30081;BME280;16902;50.816;12.828;2023-07-09T11:15:31;98290.56;;;35.14;30.83
30081;BME280;16902;50.816;12.828;2023-07-09T11:20:36;98297.75;;;37.86;31.67
30081;BME280;16902;50.816;12.828;2023-07-09T11:26:33;98296.56;;;39.80;28.79
30081;BME280;16902;50.816;12.828;2023-07-09T11:31:39;98284.22;;;40.52;28.39
30081;BME280;16902;50.816;12.828;2023-07-09T11:36:57;98288.84;;;41.54;26.58
30081;BME280;16902;50.816;12.828;2023-07-09T11:41:59;98291.66;;;43.42;25.02
30081;BME280;16902;50.816;12.828;2023-07-09T11:47:20;98301.94;;;42.97;25.36
30081;BME280;16902;50.816;12.828;2023-07-09T11:52:47;98284.41;;;41.76;25.99
30081;BME280;16902;50.816;12.828;2023-07-09T11:58:10;98280.91;;;43.05;23.58
30081;BME280;16902;50.816;12.828;2023-07-09T12:03:26;98283.31;;;44.79;23.94
30081;BME280;16902;50.816;12.828;2023-07-09T12:08:34;98276.25;;;44.68;21.97
30081;BME280;16902;50.816;12.828;2023-07-09T12:13:39;98278.09;;;43.01;21.88
30081;BME280;16902;50.816;12.828;2023-07-09T12:18:41;98272.81;;;43.33;24.64
30081;BME280;16902;50.816;12.828;2023-07-09T12:23:43;98263.91;;;43.54;22.64
30081;BME280;16902;50.816;12.828;2023-07-09T12:28:56;98266.03;;;44.47;21.88
30081;BME280;16902;50.816;12.828;2023-07-09T12:33:58;98255.41;;;43.99;23.98
30081;BME280;16902;50.816;12.828;2023-07-09T12:39:02;98257.25;;;46.07;21.64
30081;BME280;16902;50.816;12.828;2023-07-09T12:44:05;98253.16;;;46.78;22.60
30081;BME280;16902;50.816;12.828;2023-07-09T12:49:20;98246.94;;;48.71;20.15
30081;BME280;16902;50.816;12.828;2023-07-09T12:54:23;98252.56;;;49.07;21.79
30081;BME280;16902;50.816;12.828;2023-07-09T12:59:28;98253.84;;;49.02;19.33
30081;BME280;16902;50.816;12.828;2023-07-09T13:04:37;98247.72;;;48.71;21.34
30081;BME280;16902;50.816;12.828;2023-07-09T13:09:48;98245.50;;;49.82;18.90
30081;BME280;16902;50.816;12.828;2023-07-09T13:14:54;98244.88;;;50.39;19.10
30081;BME280;16902;50.816;12.828;2023-07-09T13:19:59;98242.97;;;50.36;20.60
30081;BME280;16902;50.816;12.828;2023-07-09T13:25:01;98234.00;;;47.63;21.19
30081;BME280;16902;50.816;12.828;2023-07-09T13:30:03;98227.06;;;48.32;19.57
30081;BME280;16902;50.816;12.828;2023-07-09T13:35:16;98225.72;;;50.45;19.72
30081;BME280;16902;50.816;12.828;2023-07-09T13:40:18;98236.91;;;50.41;19.30
30081;BME280;16902;50.816;12.828;2023-07-09T13:45:23;98230.59;;;52.05;19.03
30081;BME280;16902;50.816;12.828;2023-07-09T13:50:25;98231.97;;;52.48;18.03
30081;BME280;16902;50.816;12.828;2023-07-09T13:55:26;98231.91;;;53.57;18.61
30081;BME280;16902;50.816;12.828;2023-07-09T14:00:28;98232.78;;;53.45;17.71
30081;BME280;16902;50.816;12.828;2023-07-09T14:05:30;98218.47;;;51.35;18.05
30081;BME280;16902;50.816;12.828;2023-07-09T14:10:32;98224.63;;;53.51;16.96
30081;BME280;16902;50.816;12.828;2023-07-09T14:15:33;98215.00;;;51.60;17.92
30081;BME280;16902;50.816;12.828;2023-07-09T14:20:35;98207.75;;;52.35;18.24
30081;BME280;16902;50.816;12.828;2023-07-09T14:25:37;98206.56;;;51.09;17.84
30081;BME280;16902;50.816;12.828;2023-07-09T14:30:39;98206.13;;;52.60;18.51
30081;BME280;16902;50.816;12.828;2023-07-09T14:35:43;98202.13;;;53.76;17.74
30081;BME280;16902;50.816;12.828;2023-07-09T14:40:46;98188.19;;;49.06;19.60
30081;BME280;16902;50.816;12.828;2023-07-09T14:45:49;98175.34;;;48.96;19.35
30081;BME280;16902;50.816;12.828;2023-07-09T14:50:51;98171.47;;;47.29;20.38
30081;BME280;16902;50.816;12.828;2023-07-09T14:55:55;98172.91;;;48.38;19.89
30081;BME280;16902;50.816;12.828;2023-07-09T15:00:57;98176.88;;;51.48;18.80
30081;BME280;16902;50.816;12.828;2023-07-09T15:05:59;98176.94;;;52.42;17.87
30081;BME280;16902;50.816;12.828;2023-07-09T15:11:02;98155.31;;;52.25;17.38
30081;BME280;16902;50.816;12.828;2023-07-09T15:16:04;98147.84;;;50.56;18.75
30081;BME280;16902;50.816;12.828;2023-07-09T15:21:08;98135.97;;;49.28;19.56
30081;BME280;16902;50.816;12.828;2023-07-09T15:26:14;98133.78;;;49.36;19.54
30081;BME280;16902;50.816;12.828;2023-07-09T15:31:16;98131.34;;;50.65;18.96
30081;BME280;16902;50.816;12.828;2023-07-09T15:36:18;98124.75;;;52.25;17.59
30081;BME280;16902;50.816;12.828;2023-07-09T15:41:20;98112.56;;;49.65;18.86
30081;BME280;16902;50.816;12.828;2023-07-09T15:46:22;98111.16;;;50.06;19.11
30081;BME280;16902;50.816;12.828;2023-07-09T15:51:24;98113.53;;;50.79;18.21
30081;BME280;16902;50.816;12.828;2023-07-09T15:56:30;98116.09;;;49.33;18.82
30081;BME280;16902;50.816;12.828;2023-07-09T16:01:34;98108.91;;;49.36;19.44
30081;BME280;16902;50.816;12.828;2023-07-09T16:06:35;98091.91;;;46.29;20.96
30081;BME280;16902;50.816;12.828;2023-07-09T16:11:46;98078.41;;;42.82;23.50
30081;BME280;16902;50.816;12.828;2023-07-09T16:16:53;98072.25;;;40.37;23.82
30081;BME280;16902;50.816;12.828;2023-07-09T16:22:01;98061.88;;;37.36;27.75
30081;BME280;16902;50.816;12.828;2023-07-09T16:27:05;98054.09;;;35.76;29.76
30081;BME280;16902;50.816;12.828;2023-07-09T16:32:09;98041.81;;;34.67;31.63
30081;BME280;16902;50.816;12.828;2023-07-09T16:37:17;98037.72;;;34.61;31.21
30081;BME280;16902;50.816;12.828;2023-07-09T16:42:20;98037.97;;;33.50;33.46
30081;BME280;16902;50.816;12.828;2023-07-09T16:47:22;98038.31;;;33.48;32.84
30081;BME280;16902;50.816;12.828;2023-07-09T16:52:25;98040.13;;;32.84;36.21
30081;BME280;16902;50.816;12.828;2023-07-09T16:57:31;98037.91;;;32.60;40.25
30081;BME280;16902;50.816;12.828;2023-07-09T17:02:33;98038.00;;;32.11;38.36
30081;BME280;16902;50.816;12.828;2023-07-09T17:07:35;98030.78;;;31.50;40.82
30081;BME280;16902;50.816;12.828;2023-07-09T17:12:37;98039.91;;;31.17;41.74
30081;BME280;16902;50.816;12.828;2023-07-09T17:17:39;98046.06;;;30.73;43.08
30081;BME280;16902;50.816;12.828;2023-07-09T17:22:40;98045.22;;;30.50;41.88
30081;BME280;16902;50.816;12.828;2023-07-09T17:27:42;98043.06;;;30.38;44.21
30081;BME280;16902;50.816;12.828;2023-07-09T17:32:45;98050.03;;;30.12;49.55
30081;BME280;16902;50.816;12.828;2023-07-09T17:37:51;98057.97;;;29.62;62.09
30081;BME280;16902;50.816;12.828;2023-07-09T17:42:54;98069.63;;;29.06;60.40
30081;BME280;16902;50.816;12.828;2023-07-09T17:47:56;98080.22;;;28.78;59.77
30081;BME280;16902;50.816;12.828;2023-07-09T17:52:58;98084.53;;;28.55;63.66
30081;BME280;16902;50.816;12.828;2023-07-09T17:58:00;98084.69;;;28.21;75.96
30081;BME280;16902;50.816;12.828;2023-07-09T18:03:11;98081.34;;;27.86;95.52
30081;BME280;16902;50.816;12.828;2023-07-09T18:08:15;98072.31;;;27.48;100.00
30081;BME280;16902;50.816;12.828;2023-07-09T18:13:20;98073.94;;;27.15;100.00
30081;BME280;16902;50.816;12.828;2023-07-09T18:18:22;98071.47;;;26.84;100.00
30081;BME280;16902;50.816;12.828;2023-07-09T18:23:24;98079.91;;;26.57;100.00
30081;BME280;16902;50.816;12.828;2023-07-09T18:28:31;98075.38;;;26.53;100.00
30081;BME280;16902;50.816;12.828;2023-07-09T18:33:36;98063.97;;;26.32;100.00
30081;BME280;16902;50.816;12.828;2023-07-09T18:38:38;98063.34;;;25.70;100.00
30081;BME280;16902;50.816;12.828;2023-07-09T18:43:39;98064.47;;;25.28;100.00
30081;BME280;16902;50.816;12.828;2023-07-09T18:48:41;98063.63;;;24.87;100.00
30081;BME280;16902;50.816;12.828;2023-07-09T18:53:43;98065.97;;;24.58;100.00
30081;BME280;16902;50.816;12.828;2023-07-09T18:58:45;98071.97;;;24.28;100.00
30081;BME280;16902;50.816;12.828;2023-07-09T19:03:47;98071.03;;;23.97;100.00
30081;BME280;16902;50.816;12.828;2023-07-09T19:08:49;98070.63;;;23.73;100.00
30081;BME280;16902;50.816;12.828;2023-07-09T19:13:50;98072.28;;;23.42;100.00
30081;BME280;16902;50.816;12.828;2023-07-09T19:18:53;98071.78;;;23.13;100.00
30081;BME280;16902;50.816;12.828;2023-07-09T19:23:56;98066.97;;;22.82;100.00
30081;BME280;16902;50.816;12.828;2023-07-09T19:28:57;98058.44;;;22.53;100.00
30081;BME280;16902;50.816;12.828;2023-07-09T19:33:59;98065.09;;;22.29;100.00
30081;BME280;16902;50.816;12.828;2023-07-09T19:39:01;98054.25;;;22.14;100.00
30081;BME280;16902;50.816;12.828;2023-07-09T19:44:02;98056.22;;;22.01;100.00
30081;BME280;16902;50.816;12.828;2023-07-09T19:49:04;98061.81;;;21.83;100.00
30081;BME280;16902;50.816;12.828;2023-07-09T19:54:14;98062.94;;;21.70;100.00
30081;BME280;16902;50.816;12.828;2023-07-09T19:59:17;98062.81;;;21.60;100.00
30081;BME280;16902;50.816;12.828;2023-07-09T20:04:19;98066.94;;;21.34;100.00
30081;BME280;16902;50.816;12.828;2023-07-09T20:09:20;98066.25;;;21.10;100.00
30081;BME280;16902;50.816;12.828;2023-07-09T20:14:23;98072.09;;;20.95;100.00
30081;BME280;16902;50.816;12.828;2023-07-09T20:19:24;98066.28;;;20.82;100.00
30081;BME280;16902;50.816;12.828;2023-07-09T20:24:27;98063.22;;;20.73;100.00
30081;BME280;16902;50.816;12.828;2023-07-09T20:29:29;98053.34;;;20.68;100.00
30081;BME280;16902;50.816;12.828;2023-07-09T20:34:30;98059.25;;;20.59;100.00
30081;BME280;16902;50.816;12.828;2023-07-09T20:39:32;98054.22;;;20.57;100.00
30081;BME280;16902;50.816;12.828;2023-07-09T20:44:36;98059.75;;;20.56;100.00
30081;BME280;16902;50.816;12.828;2023-07-09T20:49:38;98057.09;;;20.44;100.00
30081;BME280;16902;50.816;12.828;2023-07-09T20:54:40;98057.59;;;20.41;100.00
30081;BME280;16902;50.816;12.828;2023-07-09T20:59:43;98062.88;;;20.41;100.00
30081;BME280;16902;50.816;12.828;2023-07-09T21:04:45;98063.47;;;20.31;100.00
30081;BME280;16902;50.816;12.828;2023-07-09T21:09:50;98070.38;;;20.20;100.00
30081;BME280;16902;50.816;12.828;2023-07-09T21:14:52;98075.25;;;20.12;100.00
30081;BME280;16902;50.816;12.828;2023-07-09T21:19:55;98079.47;;;20.24;100.00
30081;BME280;16902;50.816;12.828;2023-07-09T21:25:12;98080.41;;;20.18;100.00
30081;BME280;16902;50.816;12.828;2023-07-09T21:30:17;98079.94;;;20.10;100.00
30081;BME280;16902;50.816;12.828;2023-07-09T21:35:26;98082.34;;;20.11;100.00
30081;BME280;16902;50.816;12.828;2023-07-09T21:40:33;98079.06;;;20.04;100.00
30081;BME280;16902;50.816;12.828;2023-07-09T21:45:39;98080.91;;;19.92;100.00
30081;BME280;16902;50.816;12.828;2023-07-09T21:50:42;98084.13;;;19.70;100.00
30081;BME280;16902;50.816;12.828;2023-07-09T21:55:45;98074.00;;;19.44;100.00
30081;BME280;16902;50.816;12.828;2023-07-09T22:00:46;98079.03;;;19.34;100.00
30081;BME280;16902;50.816;12.828;2023-07-09T22:05:57;98077.97;;;19.23;100.00
30081;BME280;16902;50.816;12.828;2023-07-09T22:10:59;98074.19;;;19.19;100.00
30081;BME280;16902;50.816;12.828;2023-07-09T22:16:01;98072.22;;;19.14;100.00
30081;BME280;16902;50.816;12.828;2023-07-09T22:21:04;98077.50;;;19.03;100.00
30081;BME280;16902;50.816;12.828;2023-07-09T22:26:06;98073.06;;;18.85;100.00
30081;BME280;16902;50.816;12.828;2023-07-09T22:31:10;98070.16;;;18.74;100.00
30081;BME280;16902;50.816;12.828;2023-07-09T22:36:15;98064.75;;;18.69;100.00
30081;BME280;16902;50.816;12.828;2023-07-09T22:41:17;98066.66;;;18.62;100.00
30081;BME280;16902;50.816;12.828;2023-07-09T22:46:26;98058.78;;;18.44;100.00
30081;BME280;16902;50.816;12.828;2023-07-09T22:51:28;98055.56;;;18.42;100.00
30081;BME280;16902;50.816;12.828;2023-07-09T22:56:34;98061.06;;;18.40;100.00
30081;BME280;16902;50.816;12.828;2023-07-09T23:01:36;98059.41;;;18.28;100.00
30081;BME280;16902;50.816;12.828;2023-07-09T23:06:39;98051.94;;;18.24;100.00
30081;BME280;16902;50.816;12.828;2023-07-09T23:11:42;98046.53;;;18.19;100.00
30081;BME280;16902;50.816;12.828;2023-07-09T23:16:45;98039.44;;;18.20;100.00
30081;BME280;16902;50.816;12.828;2023-07-09T23:21:47;98044.94;;;18.18;100.00
30081;BME280;16902;50.816;12.828;2023-07-09T23:26:51;98046.44;;;18.08;100.00
30081;BME280;16902;50.816;12.828;2023-07-09T23:31:54;98045.88;;;18.06;100.00
30081;BME280;16902;50.816;12.828;2023-07-09T23:36:56;98039.34;;;18.08;100.00
30081;BME280;16902;50.816;12.828;2023-07-09T23:41:58;98027.00;;;17.90;100.00
30081;BME280;16902;50.816;12.828;2023-07-09T23:47:00;98022.78;;;17.89;100.00
30081;BME280;16902;50.816;12.828;2023-07-09T23:52:07;98016.97;;;17.99;100.00
30081;BME280;16902;50.816;12.828;2023-07-09T23:57:11;98009.69;;;18.13;100.00
